sensor_id;sensor_type;location;lat;lon;timestamp;temperature;humidity
22544;DHT22;11438;52.044;8.716;2022-11-14T00:02:22;8.20;95.00
22544;DHT22;11438;52.044;8.716;2022-11-14T00:04:48;8.20;94.70
22544;DHT22;11438;52.044;8.716;2022-11-14T00:07:14;8.10;94.70
22544;DHT22;11438;52.044;8.716;2022-11-14T00:09:40;8.10;94.70
22544;DHT22;11438;52.044;8.716;2022-11-14T00:12:08;8.10;94.70
22544;DHT22;11438;52.044;8.716;2022-11-14T00:14:34;8.10;94.80
22544;DHT22;11438;52.044;8.716;2022-11-14T00:16:59;8.10;94.90
22544;DHT22;11438;52.044;8.716;2022-11-14T00:19:25;8.10;95.00
22544;DHT22;11438;52.044;8.716;2022-11-14T00:21:52;8.10;95.10
22544;DHT22;11438;52.044;8.716;2022-11-14T00:24:18;8.10;95.40
22544;DHT22;11438;52.044;8.716;2022-11-14T00:26:44;8.10;95.50
22544;DHT22;11438;52.044;8.716;2022-11-14T00:29:10;8.10;95.60
22544;DHT22;11438;52.044;8.716;2022-11-14T00:31:36;8.10;95.70
22544;DHT22;11438;52.044;8.716;2022-11-14T00:34:02;8.10;95.80
22544;DHT22;11438;52.044;8.716;2022-11-14T00:36:27;8.00;95.90
22544;DHT22;11438;52.044;8.716;2022-11-14T00:38:53;8.10;95.90
22544;DHT22;11438;52.044;8.716;2022-11-14T00:41:19;8.00;96.00
22544;DHT22;11438;52.044;8.716;2022-11-14T00:43:45;8.00;96.10
22544;DHT22;11438;52.044;8.716;2022-11-14T00:46:10;8.00;96.10
22544;DHT22;11438;52.044;8.716;2022-11-14T00:48:36;8.10;96.10
22544;DHT22;11438;52.044;8.716;2022-11-14T00:51:02;8.00;96.10
22544;DHT22;11438;52.044;8.716;2022-11-14T00:53:27;8.00;96.20
22544;DHT22;11438;52.044;8.716;2022-11-14T00:55:53;8.00;96.20
22544;DHT22;11438;52.044;8.716;2022-11-14T00:58:19;8.00;96.20
22544;DHT22;11438;52.044;8.716;2022-11-14T01:00:44;8.00;96.30
22544;DHT22;11438;52.044;8.716;2022-11-14T01:03:10;8.00;96.40
22544;DHT22;11438;52.044;8.716;2022-11-14T01:05:47;8.00;96.50
22544;DHT22;11438;52.044;8.716;2022-11-14T01:08:14;8.00;96.60
22544;DHT22;11438;52.044;8.716;2022-11-14T01:10:45;7.90;96.50
22544;DHT22;11438;52.044;8.716;2022-11-14T01:13:12;7.90;96.60
22544;DHT22;11438;52.044;8.716;2022-11-14T01:15:43;7.90;96.60
22544;DHT22;11438;52.044;8.716;2022-11-14T01:18:11;7.90;96.70
22544;DHT22;11438;52.044;8.716;2022-11-14T01:20:44;7.90;96.70
22544;DHT22;11438;52.044;8.716;2022-11-14T01:23:11;7.90;96.80
22544;DHT22;11438;52.044;8.716;2022-11-14T01:25:38;7.90;96.70
22544;DHT22;11438;52.044;8.716;2022-11-14T01:28:06;7.90;96.80
22544;DHT22;11438;52.044;8.716;2022-11-14T01:30:32;7.90;96.80
22544;DHT22;11438;52.044;8.716;2022-11-14T01:32:57;7.90;96.90
22544;DHT22;11438;52.044;8.716;2022-11-14T01:35:23;7.90;96.90
22544;DHT22;11438;52.044;8.716;2022-11-14T01:37:49;7.80;96.90
22544;DHT22;11438;52.044;8.716;2022-11-14T01:40:15;7.90;97.00
22544;DHT22;11438;52.044;8.716;2022-11-14T01:42:41;7.90;97.40
22544;DHT22;11438;52.044;8.716;2022-11-14T01:48:30;7.80;97.10
22544;DHT22;11438;52.044;8.716;2022-11-14T01:51:00;7.80;97.10
22544;DHT22;11438;52.044;8.716;2022-11-14T01:53:26;7.80;97.10
22544;DHT22;11438;52.044;8.716;2022-11-14T01:55:55;7.80;97.10
22544;DHT22;11438;52.044;8.716;2022-11-14T01:58:22;7.80;97.20
22544;DHT22;11438;52.044;8.716;2022-11-14T02:00:48;7.80;97.20
22544;DHT22;11438;52.044;8.716;2022-11-14T02:03:14;7.80;97.20
22544;DHT22;11438;52.044;8.716;2022-11-14T02:05:41;7.80;97.30
22544;DHT22;11438;52.044;8.716;2022-11-14T02:08:12;7.80;97.30
22544;DHT22;11438;52.044;8.716;2022-11-14T02:10:38;7.80;97.30
22544;DHT22;11438;52.044;8.716;2022-11-14T02:13:04;7.80;97.30
22544;DHT22;11438;52.044;8.716;2022-11-14T02:15:30;7.80;97.40
22544;DHT22;11438;52.044;8.716;2022-11-14T02:17:55;7.80;97.40
22544;DHT22;11438;52.044;8.716;2022-11-14T02:20:24;7.80;97.40
22544;DHT22;11438;52.044;8.716;2022-11-14T02:22:53;7.70;97.40
22544;DHT22;11438;52.044;8.716;2022-11-14T02:25:18;7.70;97.40
22544;DHT22;11438;52.044;8.716;2022-11-14T02:27:44;7.70;97.40
22544;DHT22;11438;52.044;8.716;2022-11-14T02:30:16;7.70;97.80
22544;DHT22;11438;52.044;8.716;2022-11-14T02:32:42;7.70;97.50
22544;DHT22;11438;52.044;8.716;2022-11-14T02:35:08;7.70;97.40
22544;DHT22;11438;52.044;8.716;2022-11-14T02:37:33;7.70;97.50
22544;DHT22;11438;52.044;8.716;2022-11-14T02:39:59;7.70;97.40
22544;DHT22;11438;52.044;8.716;2022-11-14T02:42:24;7.70;97.40
22544;DHT22;11438;52.044;8.716;2022-11-14T02:44:50;7.70;97.40
22544;DHT22;11438;52.044;8.716;2022-11-14T02:47:16;7.60;97.40
22544;DHT22;11438;52.044;8.716;2022-11-14T02:49:41;7.60;97.40
22544;DHT22;11438;52.044;8.716;2022-11-14T02:52:07;7.60;97.40
22544;DHT22;11438;52.044;8.716;2022-11-14T02:54:32;7.60;97.40
22544;DHT22;11438;52.044;8.716;2022-11-14T02:56:58;7.60;97.30
22544;DHT22;11438;52.044;8.716;2022-11-14T02:59:23;7.60;97.30
22544;DHT22;11438;52.044;8.716;2022-11-14T03:01:49;7.60;97.30
22544;DHT22;11438;52.044;8.716;2022-11-14T03:04:14;7.60;97.30
22544;DHT22;11438;52.044;8.716;2022-11-14T03:06:40;7.60;97.30
22544;DHT22;11438;52.044;8.716;2022-11-14T03:09:06;7.60;97.30
22544;DHT22;11438;52.044;8.716;2022-11-14T03:11:31;7.60;97.30
22544;DHT22;11438;52.044;8.716;2022-11-14T03:13:58;7.60;97.40
22544;DHT22;11438;52.044;8.716;2022-11-14T03:16:24;7.60;97.40
22544;DHT22;11438;52.044;8.716;2022-11-14T03:18:49;7.60;97.70
22544;DHT22;11438;52.044;8.716;2022-11-14T03:21:20;7.60;97.40
22544;DHT22;11438;52.044;8.716;2022-11-14T03:23:46;7.60;97.40
22544;DHT22;11438;52.044;8.716;2022-11-14T03:26:12;7.50;97.40
22544;DHT22;11438;52.044;8.716;2022-11-14T03:28:39;7.50;97.40
22544;DHT22;11438;52.044;8.716;2022-11-14T03:31:06;7.50;97.40
22544;DHT22;11438;52.044;8.716;2022-11-14T03:33:32;7.50;97.40
22544;DHT22;11438;52.044;8.716;2022-11-14T03:35:58;7.50;97.40
22544;DHT22;11438;52.044;8.716;2022-11-14T03:38:23;7.50;97.40
22544;DHT22;11438;52.044;8.716;2022-11-14T03:40:50;7.50;97.40
22544;DHT22;11438;52.044;8.716;2022-11-14T03:43:17;7.50;97.40
22544;DHT22;11438;52.044;8.716;2022-11-14T03:45:43;7.50;97.40
22544;DHT22;11438;52.044;8.716;2022-11-14T03:48:08;7.40;97.30
22544;DHT22;11438;52.044;8.716;2022-11-14T03:50:34;7.40;97.40
22544;DHT22;11438;52.044;8.716;2022-11-14T03:53:00;7.40;97.40
22544;DHT22;11438;52.044;8.716;2022-11-14T03:55:26;7.40;97.40
22544;DHT22;11438;52.044;8.716;2022-11-14T03:57:51;7.40;97.40
22544;DHT22;11438;52.044;8.716;2022-11-14T04:00:17;7.40;97.40
22544;DHT22;11438;52.044;8.716;2022-11-14T04:02:43;7.40;97.40
22544;DHT22;11438;52.044;8.716;2022-11-14T04:05:09;7.40;97.40
22544;DHT22;11438;52.044;8.716;2022-11-14T04:07:34;7.40;97.40
22544;DHT22;11438;52.044;8.716;2022-11-14T04:10:00;7.40;97.70
22544;DHT22;11438;52.044;8.716;2022-11-14T04:12:26;7.40;97.40
22544;DHT22;11438;52.044;8.716;2022-11-14T04:14:52;7.40;97.40
22544;DHT22;11438;52.044;8.716;2022-11-14T04:17:17;7.40;97.40
22544;DHT22;11438;52.044;8.716;2022-11-14T04:19:43;7.40;97.40
22544;DHT22;11438;52.044;8.716;2022-11-14T04:22:08;7.40;97.40
22544;DHT22;11438;52.044;8.716;2022-11-14T04:24:34;7.40;97.40
22544;DHT22;11438;52.044;8.716;2022-11-14T04:26:59;7.40;97.30
22544;DHT22;11438;52.044;8.716;2022-11-14T04:29:25;7.40;97.20
22544;DHT22;11438;52.044;8.716;2022-11-14T04:31:51;7.30;97.20
22544;DHT22;11438;52.044;8.716;2022-11-14T04:34:16;7.40;97.20
22544;DHT22;11438;52.044;8.716;2022-11-14T04:36:42;7.40;97.20
22544;DHT22;11438;52.044;8.716;2022-11-14T04:39:07;7.40;97.20
22544;DHT22;11438;52.044;8.716;2022-11-14T04:41:33;7.40;97.20
22544;DHT22;11438;52.044;8.716;2022-11-14T04:43:58;7.40;97.10
22544;DHT22;11438;52.044;8.716;2022-11-14T04:46:24;7.30;97.10
22544;DHT22;11438;52.044;8.716;2022-11-14T04:48:49;7.30;97.00
22544;DHT22;11438;52.044;8.716;2022-11-14T04:51:15;7.30;97.00
22544;DHT22;11438;52.044;8.716;2022-11-14T04:53:41;7.30;97.10
22544;DHT22;11438;52.044;8.716;2022-11-14T04:56:06;7.30;97.10
22544;DHT22;11438;52.044;8.716;2022-11-14T04:58:32;7.30;97.20
22544;DHT22;11438;52.044;8.716;2022-11-14T05:00:58;7.30;97.20
22544;DHT22;11438;52.044;8.716;2022-11-14T05:03:24;7.30;97.30
22544;DHT22;11438;52.044;8.716;2022-11-14T05:05:50;7.30;97.40
22544;DHT22;11438;52.044;8.716;2022-11-14T05:08:16;7.30;97.40
22544;DHT22;11438;52.044;8.716;2022-11-14T05:10:42;7.30;97.60
22544;DHT22;11438;52.044;8.716;2022-11-14T05:13:09;7.20;97.60
22544;DHT22;11438;52.044;8.716;2022-11-14T05:15:34;7.20;97.70
22544;DHT22;11438;52.044;8.716;2022-11-14T05:18:00;7.20;97.80
22544;DHT22;11438;52.044;8.716;2022-11-14T05:20:26;7.20;97.90
22544;DHT22;11438;52.044;8.716;2022-11-14T05:22:53;7.20;97.90
22544;DHT22;11438;52.044;8.716;2022-11-14T05:25:19;7.20;98.00
22544;DHT22;11438;52.044;8.716;2022-11-14T05:27:46;7.20;98.00
22544;DHT22;11438;52.044;8.716;2022-11-14T05:30:12;7.20;98.00
22544;DHT22;11438;52.044;8.716;2022-11-14T05:32:38;7.20;98.00
22544;DHT22;11438;52.044;8.716;2022-11-14T05:35:04;7.20;98.10
22544;DHT22;11438;52.044;8.716;2022-11-14T05:37:29;7.20;98.10
22544;DHT22;11438;52.044;8.716;2022-11-14T05:39:55;7.20;98.00
22544;DHT22;11438;52.044;8.716;2022-11-14T05:42:20;7.20;98.00
22544;DHT22;11438;52.044;8.716;2022-11-14T05:44:46;7.20;98.00
22544;DHT22;11438;52.044;8.716;2022-11-14T05:47:11;7.20;98.00
22544;DHT22;11438;52.044;8.716;2022-11-14T05:49:37;7.20;98.40
22544;DHT22;11438;52.044;8.716;2022-11-14T05:52:03;7.20;98.00
22544;DHT22;11438;52.044;8.716;2022-11-14T05:54:28;7.20;98.00
22544;DHT22;11438;52.044;8.716;2022-11-14T05:56:54;7.20;98.00
22544;DHT22;11438;52.044;8.716;2022-11-14T05:59:19;7.20;98.00
22544;DHT22;11438;52.044;8.716;2022-11-14T06:01:45;7.20;97.90
22544;DHT22;11438;52.044;8.716;2022-11-14T06:04:12;7.20;97.90
22544;DHT22;11438;52.044;8.716;2022-11-14T06:06:38;7.20;97.90
22544;DHT22;11438;52.044;8.716;2022-11-14T06:09:12;7.20;97.80
22544;DHT22;11438;52.044;8.716;2022-11-14T06:11:38;7.20;97.80
22544;DHT22;11438;52.044;8.716;2022-11-14T06:14:04;7.20;97.80
22544;DHT22;11438;52.044;8.716;2022-11-14T06:16:29;7.20;97.80
22544;DHT22;11438;52.044;8.716;2022-11-14T06:18:55;7.20;97.80
22544;DHT22;11438;52.044;8.716;2022-11-14T06:21:23;7.20;97.80
22544;DHT22;11438;52.044;8.716;2022-11-14T06:23:49;7.20;97.70
22544;DHT22;11438;52.044;8.716;2022-11-14T06:26:22;7.10;97.70
22544;DHT22;11438;52.044;8.716;2022-11-14T06:28:49;7.10;97.70
22544;DHT22;11438;52.044;8.716;2022-11-14T06:31:16;7.10;97.60
22544;DHT22;11438;52.044;8.716;2022-11-14T06:33:41;7.10;97.60
22544;DHT22;11438;52.044;8.716;2022-11-14T06:36:08;7.10;97.60
22544;DHT22;11438;52.044;8.716;2022-11-14T06:38:35;7.10;98.00
22544;DHT22;11438;52.044;8.716;2022-11-14T06:41:13;7.10;97.70
22544;DHT22;11438;52.044;8.716;2022-11-14T06:43:41;7.10;97.80
22544;DHT22;11438;52.044;8.716;2022-11-14T06:46:08;7.10;97.70
22544;DHT22;11438;52.044;8.716;2022-11-14T06:48:35;7.10;97.70
22544;DHT22;11438;52.044;8.716;2022-11-14T06:51:02;7.10;97.80
22544;DHT22;11438;52.044;8.716;2022-11-14T06:53:29;7.10;97.80
22544;DHT22;11438;52.044;8.716;2022-11-14T06:56:03;7.10;97.80
22544;DHT22;11438;52.044;8.716;2022-11-14T06:58:35;7.10;97.80
22544;DHT22;11438;52.044;8.716;2022-11-14T07:01:05;7.10;97.80
22544;DHT22;11438;52.044;8.716;2022-11-14T07:03:32;7.10;97.80
22544;DHT22;11438;52.044;8.716;2022-11-14T07:05:59;7.10;97.80
22544;DHT22;11438;52.044;8.716;2022-11-14T07:08:24;7.10;97.80
22544;DHT22;11438;52.044;8.716;2022-11-14T07:10:50;7.10;97.80
22544;DHT22;11438;52.044;8.716;2022-11-14T07:13:15;7.10;97.70
22544;DHT22;11438;52.044;8.716;2022-11-14T07:15:49;7.10;97.70
22544;DHT22;11438;52.044;8.716;2022-11-14T07:18:15;7.10;97.80
22544;DHT22;11438;52.044;8.716;2022-11-14T07:20:40;7.10;97.70
22544;DHT22;11438;52.044;8.716;2022-11-14T07:23:06;7.10;97.70
22544;DHT22;11438;52.044;8.716;2022-11-14T07:25:31;7.10;98.10
22544;DHT22;11438;52.044;8.716;2022-11-14T07:27:57;7.10;97.70
22544;DHT22;11438;52.044;8.716;2022-11-14T07:30:23;7.10;97.70
22544;DHT22;11438;52.044;8.716;2022-11-14T07:32:54;7.10;97.70
22544;DHT22;11438;52.044;8.716;2022-11-14T07:35:20;7.10;97.80
22544;DHT22;11438;52.044;8.716;2022-11-14T07:37:45;7.10;97.70
22544;DHT22;11438;52.044;8.716;2022-11-14T07:40:11;7.10;97.70
22544;DHT22;11438;52.044;8.716;2022-11-14T07:42:37;7.20;97.80
22544;DHT22;11438;52.044;8.716;2022-11-14T07:45:02;7.10;97.70
22544;DHT22;11438;52.044;8.716;2022-11-14T07:47:28;7.20;97.70
22544;DHT22;11438;52.044;8.716;2022-11-14T07:49:53;7.20;97.70
22544;DHT22;11438;52.044;8.716;2022-11-14T07:52:19;7.20;97.80
22544;DHT22;11438;52.044;8.716;2022-11-14T07:54:44;7.20;97.80
22544;DHT22;11438;52.044;8.716;2022-11-14T07:57:10;7.30;97.90
22544;DHT22;11438;52.044;8.716;2022-11-14T07:59:36;7.30;98.00
22544;DHT22;11438;52.044;8.716;2022-11-14T08:02:01;7.30;98.20
22544;DHT22;11438;52.044;8.716;2022-11-14T08:04:27;7.30;98.30
22544;DHT22;11438;52.044;8.716;2022-11-14T08:06:52;7.30;98.40
22544;DHT22;11438;52.044;8.716;2022-11-14T08:09:18;7.40;98.60
22544;DHT22;11438;52.044;8.716;2022-11-14T08:11:43;7.40;98.70
22544;DHT22;11438;52.044;8.716;2022-11-14T08:14:12;7.40;98.70
22544;DHT22;11438;52.044;8.716;2022-11-14T08:16:37;7.50;98.80
22544;DHT22;11438;52.044;8.716;2022-11-14T08:19:03;7.50;98.90
22544;DHT22;11438;52.044;8.716;2022-11-14T08:21:28;7.60;98.90
22544;DHT22;11438;52.044;8.716;2022-11-14T08:23:54;7.60;99.00
22544;DHT22;11438;52.044;8.716;2022-11-14T08:26:19;7.60;99.00
22544;DHT22;11438;52.044;8.716;2022-11-14T08:28:45;7.60;99.10
22544;DHT22;11438;52.044;8.716;2022-11-14T08:31:11;7.70;99.10
22544;DHT22;11438;52.044;8.716;2022-11-14T08:33:38;7.70;99.10
22544;DHT22;11438;52.044;8.716;2022-11-14T08:36:05;7.70;99.10
22544;DHT22;11438;52.044;8.716;2022-11-14T08:38:32;7.80;99.20
22544;DHT22;11438;52.044;8.716;2022-11-14T08:40:59;7.80;99.30
22544;DHT22;11438;52.044;8.716;2022-11-14T08:43:25;7.80;99.40
22544;DHT22;11438;52.044;8.716;2022-11-14T08:45:50;7.90;99.40
22544;DHT22;11438;52.044;8.716;2022-11-14T08:48:16;7.90;99.50
22544;DHT22;11438;52.044;8.716;2022-11-14T08:50:41;8.00;99.50
22544;DHT22;11438;52.044;8.716;2022-11-14T08:53:07;8.00;99.60
22544;DHT22;11438;52.044;8.716;2022-11-14T08:55:33;8.10;99.70
22544;DHT22;11438;52.044;8.716;2022-11-14T08:57:59;8.10;99.70
22544;DHT22;11438;52.044;8.716;2022-11-14T09:00:24;8.10;99.80
22544;DHT22;11438;52.044;8.716;2022-11-14T09:02:50;8.20;99.90
22544;DHT22;11438;52.044;8.716;2022-11-14T09:05:15;8.20;99.90
22544;DHT22;11438;52.044;8.716;2022-11-14T09:07:41;8.30;99.90
22544;DHT22;11438;52.044;8.716;2022-11-14T09:10:07;8.30;99.90
22544;DHT22;11438;52.044;8.716;2022-11-14T09:12:33;8.40;99.90
22544;DHT22;11438;52.044;8.716;2022-11-14T09:14:59;8.40;99.90
22544;DHT22;11438;52.044;8.716;2022-11-14T09:17:25;8.40;99.90
22544;DHT22;11438;52.044;8.716;2022-11-14T09:19:50;8.50;99.90
22544;DHT22;11438;52.044;8.716;2022-11-14T09:22:16;8.50;99.90
22544;DHT22;11438;52.044;8.716;2022-11-14T09:24:42;8.60;99.90
22544;DHT22;11438;52.044;8.716;2022-11-14T09:27:07;8.70;99.90
22544;DHT22;11438;52.044;8.716;2022-11-14T09:29:33;8.70;99.90
22544;DHT22;11438;52.044;8.716;2022-11-14T09:31:58;8.80;99.90
22544;DHT22;11438;52.044;8.716;2022-11-14T09:34:24;8.80;99.90
22544;DHT22;11438;52.044;8.716;2022-11-14T09:36:49;8.80;99.90
22544;DHT22;11438;52.044;8.716;2022-11-14T09:39:15;8.90;99.90
22544;DHT22;11438;52.044;8.716;2022-11-14T09:44:39;9.10;99.90
22544;DHT22;11438;52.044;8.716;2022-11-14T09:47:11;9.10;99.90
22544;DHT22;11438;52.044;8.716;2022-11-14T09:49:40;9.20;99.90
22544;DHT22;11438;52.044;8.716;2022-11-14T09:52:27;9.20;99.90
22544;DHT22;11438;52.044;8.716;2022-11-14T09:54:57;9.30;99.90
22544;DHT22;11438;52.044;8.716;2022-11-14T09:57:24;9.30;99.90
22544;DHT22;11438;52.044;8.716;2022-11-14T09:59:51;9.40;99.90
22544;DHT22;11438;52.044;8.716;2022-11-14T10:02:37;9.40;99.90
22544;DHT22;11438;52.044;8.716;2022-11-14T10:05:27;9.50;99.80
22544;DHT22;11438;52.044;8.716;2022-11-14T10:08:15;9.60;99.80
22544;DHT22;11438;52.044;8.716;2022-11-14T10:13:35;9.70;99.80
22544;DHT22;11438;52.044;8.716;2022-11-14T10:16:13;9.80;99.70
22544;DHT22;11438;52.044;8.716;2022-11-14T10:19:08;9.80;99.70
22544;DHT22;11438;52.044;8.716;2022-11-14T10:27:42;10.00;99.70
22544;DHT22;11438;52.044;8.716;2022-11-14T10:30:15;10.10;99.70
22544;DHT22;11438;52.044;8.716;2022-11-14T10:35:38;10.20;99.60
22544;DHT22;11438;52.044;8.716;2022-11-14T10:38:10;10.30;99.90
22544;DHT22;11438;52.044;8.716;2022-11-14T10:43:23;10.40;99.40
22544;DHT22;11438;52.044;8.716;2022-11-14T10:45:53;10.40;99.40
22544;DHT22;11438;52.044;8.716;2022-11-14T10:48:29;10.50;99.30
22544;DHT22;11438;52.044;8.716;2022-11-14T10:51:02;10.60;99.20
22544;DHT22;11438;52.044;8.716;2022-11-14T10:53:42;10.60;99.10
22544;DHT22;11438;52.044;8.716;2022-11-14T10:56:13;10.70;99.00
22544;DHT22;11438;52.044;8.716;2022-11-14T10:58:40;10.70;98.90
22544;DHT22;11438;52.044;8.716;2022-11-14T11:01:31;10.80;98.80
22544;DHT22;11438;52.044;8.716;2022-11-14T11:03:57;10.90;98.80
22544;DHT22;11438;52.044;8.716;2022-11-14T11:06:26;10.90;98.70
22544;DHT22;11438;52.044;8.716;2022-11-14T11:08:52;11.00;98.60
22544;DHT22;11438;52.044;8.716;2022-11-14T11:11:40;11.10;98.60
22544;DHT22;11438;52.044;8.716;2022-11-14T11:14:17;11.10;98.40
22544;DHT22;11438;52.044;8.716;2022-11-14T11:16:45;11.20;98.30
22544;DHT22;11438;52.044;8.716;2022-11-14T11:19:29;11.20;98.30
22544;DHT22;11438;52.044;8.716;2022-11-14T11:21:55;11.30;98.10
22544;DHT22;11438;52.044;8.716;2022-11-14T11:24:32;11.40;98.00
22544;DHT22;11438;52.044;8.716;2022-11-14T11:30:29;11.40;97.90
22544;DHT22;11438;52.044;8.716;2022-11-14T11:32:30;11.50;97.80
22544;DHT22;11438;52.044;8.716;2022-11-14T11:34:57;11.60;97.70
22544;DHT22;11438;52.044;8.716;2022-11-14T11:37:27;11.60;97.60
22544;DHT22;11438;52.044;8.716;2022-11-14T11:40:03;11.70;97.60
22544;DHT22;11438;52.044;8.716;2022-11-14T11:42:42;11.70;97.60
22544;DHT22;11438;52.044;8.716;2022-11-14T11:45:16;11.70;97.60
22544;DHT22;11438;52.044;8.716;2022-11-14T11:47:56;11.80;97.60
22544;DHT22;11438;52.044;8.716;2022-11-14T11:50:23;11.90;97.50
22544;DHT22;11438;52.044;8.716;2022-11-14T11:53:21;11.90;97.50
22544;DHT22;11438;52.044;8.716;2022-11-14T11:55:52;11.90;97.50
22544;DHT22;11438;52.044;8.716;2022-11-14T11:58:25;12.00;97.40
22544;DHT22;11438;52.044;8.716;2022-11-14T12:00:52;12.00;97.20
22544;DHT22;11438;52.044;8.716;2022-11-14T12:03:20;12.10;97.20
22544;DHT22;11438;52.044;8.716;2022-11-14T12:08:33;12.10;96.90
22544;DHT22;11438;52.044;8.716;2022-11-14T12:11:01;12.20;96.80
22544;DHT22;11438;52.044;8.716;2022-11-14T12:16:10;12.30;96.80
22544;DHT22;11438;52.044;8.716;2022-11-14T12:27:43;12.40;96.40
22544;DHT22;11438;52.044;8.716;2022-11-14T12:30:19;12.40;96.40
22544;DHT22;11438;52.044;8.716;2022-11-14T12:32:52;12.50;96.30
22544;DHT22;11438;52.044;8.716;2022-11-14T12:35:46;12.50;96.30
22544;DHT22;11438;52.044;8.716;2022-11-14T12:38:14;12.50;96.20
22544;DHT22;11438;52.044;8.716;2022-11-14T12:40:49;12.50;96.10
22544;DHT22;11438;52.044;8.716;2022-11-14T12:43:36;12.50;96.20
22544;DHT22;11438;52.044;8.716;2022-11-14T12:46:06;12.50;96.20
22544;DHT22;11438;52.044;8.716;2022-11-14T12:48:44;12.60;96.20
22544;DHT22;11438;52.044;8.716;2022-11-14T12:53:54;12.70;96.10
22544;DHT22;11438;52.044;8.716;2022-11-14T12:59:05;12.70;96.10
22544;DHT22;11438;52.044;8.716;2022-11-14T13:10:31;12.90;96.00
22544;DHT22;11438;52.044;8.716;2022-11-14T13:13:08;12.90;96.10
22544;DHT22;11438;52.044;8.716;2022-11-14T13:15:54;12.90;96.20
22544;DHT22;11438;52.044;8.716;2022-11-14T13:22:35;13.00;96.10
22544;DHT22;11438;52.044;8.716;2022-11-14T13:27:32;13.00;96.20
22544;DHT22;11438;52.044;8.716;2022-11-14T13:29:59;13.00;96.10
22544;DHT22;11438;52.044;8.716;2022-11-14T13:35:43;13.10;96.10
22544;DHT22;11438;52.044;8.716;2022-11-14T13:38:32;13.10;96.00
22544;DHT22;11438;52.044;8.716;2022-11-14T13:44:44;13.10;96.00
22544;DHT22;11438;52.044;8.716;2022-11-14T13:50:05;13.10;96.00
22544;DHT22;11438;52.044;8.716;2022-11-14T13:52:33;13.10;96.00
22544;DHT22;11438;52.044;8.716;2022-11-14T13:55:00;13.20;95.90
22544;DHT22;11438;52.044;8.716;2022-11-14T13:57:40;13.20;95.90
22544;DHT22;11438;52.044;8.716;2022-11-14T14:00:15;13.20;96.00
22544;DHT22;11438;52.044;8.716;2022-11-14T14:03:09;13.20;95.90
22544;DHT22;11438;52.044;8.716;2022-11-14T14:11:32;13.20;95.70
22544;DHT22;11438;52.044;8.716;2022-11-14T14:14:14;13.30;95.70
22544;DHT22;11438;52.044;8.716;2022-11-14T14:19:14;13.30;95.70
22544;DHT22;11438;52.044;8.716;2022-11-14T14:32:16;13.30;95.30
22544;DHT22;11438;52.044;8.716;2022-11-14T14:34:42;13.30;95.30
22544;DHT22;11438;52.044;8.716;2022-11-14T14:40:05;13.30;95.30
22544;DHT22;11438;52.044;8.716;2022-11-14T14:42:39;13.30;95.30
22544;DHT22;11438;52.044;8.716;2022-11-14T14:45:13;13.30;95.20
22544;DHT22;11438;52.044;8.716;2022-11-14T14:47:42;13.30;95.20
22544;DHT22;11438;52.044;8.716;2022-11-14T14:50:22;13.30;95.10
22544;DHT22;11438;52.044;8.716;2022-11-14T14:53:00;13.30;95.20
22544;DHT22;11438;52.044;8.716;2022-11-14T14:55:29;13.30;95.20
22544;DHT22;11438;52.044;8.716;2022-11-14T14:58:15;13.20;95.20
22544;DHT22;11438;52.044;8.716;2022-11-14T15:00:53;13.20;95.10
22544;DHT22;11438;52.044;8.716;2022-11-14T15:03:20;13.20;95.10
22544;DHT22;11438;52.044;8.716;2022-11-14T15:05:47;13.30;95.10
22544;DHT22;11438;52.044;8.716;2022-11-14T15:08:14;13.20;95.10
22544;DHT22;11438;52.044;8.716;2022-11-14T15:10:41;13.20;95.10
22544;DHT22;11438;52.044;8.716;2022-11-14T15:13:10;13.20;95.10
22544;DHT22;11438;52.044;8.716;2022-11-14T15:15:38;13.20;95.10
22544;DHT22;11438;52.044;8.716;2022-11-14T15:18:06;13.20;95.10
22544;DHT22;11438;52.044;8.716;2022-11-14T15:20:33;13.10;95.10
22544;DHT22;11438;52.044;8.716;2022-11-14T15:23:18;13.10;95.10
22544;DHT22;11438;52.044;8.716;2022-11-14T15:25:45;13.10;95.10
22544;DHT22;11438;52.044;8.716;2022-11-14T15:28:19;13.10;95.10
22544;DHT22;11438;52.044;8.716;2022-11-14T15:31:16;13.00;95.10
22544;DHT22;11438;52.044;8.716;2022-11-14T15:33:42;13.00;95.20
22544;DHT22;11438;52.044;8.716;2022-11-14T15:36:13;12.90;95.10
22544;DHT22;11438;52.044;8.716;2022-11-14T15:39:00;12.90;95.20
22544;DHT22;11438;52.044;8.716;2022-11-14T15:41:27;12.90;95.20
22544;DHT22;11438;52.044;8.716;2022-11-14T15:43:55;12.90;95.30
22544;DHT22;11438;52.044;8.716;2022-11-14T15:46:45;12.80;95.30
22544;DHT22;11438;52.044;8.716;2022-11-14T15:49:21;12.80;95.30
22544;DHT22;11438;52.044;8.716;2022-11-14T15:52:00;12.80;95.30
22544;DHT22;11438;52.044;8.716;2022-11-14T15:54:29;12.80;95.30
22544;DHT22;11438;52.044;8.716;2022-11-14T15:56:57;12.70;95.30
22544;DHT22;11438;52.044;8.716;2022-11-14T15:59:24;12.70;95.30
22544;DHT22;11438;52.044;8.716;2022-11-14T16:02:13;12.70;95.40
22544;DHT22;11438;52.044;8.716;2022-11-14T16:04:40;12.60;95.40
22544;DHT22;11438;52.044;8.716;2022-11-14T16:07:05;12.60;95.30
22544;DHT22;11438;52.044;8.716;2022-11-14T16:09:31;12.60;95.30
22544;DHT22;11438;52.044;8.716;2022-11-14T16:11:56;12.60;95.30
22544;DHT22;11438;52.044;8.716;2022-11-14T16:14:22;12.50;95.30
22544;DHT22;11438;52.044;8.716;2022-11-14T16:16:47;12.50;95.30
22544;DHT22;11438;52.044;8.716;2022-11-14T16:19:15;12.50;95.30
22544;DHT22;11438;52.044;8.716;2022-11-14T16:21:41;12.40;95.30
22544;DHT22;11438;52.044;8.716;2022-11-14T16:24:13;12.40;95.40
22544;DHT22;11438;52.044;8.716;2022-11-14T16:26:39;12.40;95.40
22544;DHT22;11438;52.044;8.716;2022-11-14T16:29:05;12.30;95.40
22544;DHT22;11438;52.044;8.716;2022-11-14T16:31:32;12.30;95.40
22544;DHT22;11438;52.044;8.716;2022-11-14T16:33:57;12.20;95.40
22544;DHT22;11438;52.044;8.716;2022-11-14T16:36:23;12.20;95.50
22544;DHT22;11438;52.044;8.716;2022-11-14T16:38:49;12.20;95.50
22544;DHT22;11438;52.044;8.716;2022-11-14T16:41:15;12.10;95.50
22544;DHT22;11438;52.044;8.716;2022-11-14T16:43:41;12.10;95.60
22544;DHT22;11438;52.044;8.716;2022-11-14T16:46:08;12.10;95.60
22544;DHT22;11438;52.044;8.716;2022-11-14T16:48:33;12.10;95.70
22544;DHT22;11438;52.044;8.716;2022-11-14T16:51:00;12.10;95.70
22544;DHT22;11438;52.044;8.716;2022-11-14T16:53:26;12.00;95.60
22544;DHT22;11438;52.044;8.716;2022-11-14T16:55:52;12.00;95.70
22544;DHT22;11438;52.044;8.716;2022-11-14T16:58:17;12.00;95.70
22544;DHT22;11438;52.044;8.716;2022-11-14T17:00:43;11.90;95.70
22544;DHT22;11438;52.044;8.716;2022-11-14T17:03:09;11.90;95.70
22544;DHT22;11438;52.044;8.716;2022-11-14T17:05:44;11.90;95.80
22544;DHT22;11438;52.044;8.716;2022-11-14T17:08:10;11.90;95.80
22544;DHT22;11438;52.044;8.716;2022-11-14T17:10:43;11.90;95.80
22544;DHT22;11438;52.044;8.716;2022-11-14T17:13:09;11.80;95.80
22544;DHT22;11438;52.044;8.716;2022-11-14T17:15:35;11.80;95.80
22544;DHT22;11438;52.044;8.716;2022-11-14T17:18:01;11.80;95.90
22544;DHT22;11438;52.044;8.716;2022-11-14T17:20:26;11.70;95.90